Time;durP1;ratioP1;P1;durP2;ratioP2;P2;SDS_P1;SDS_P2;PMS_P1;PMS_P2;Temp;Humidity;BMP_temperature;BMP_pressure;BME280_temperature;BME280_humidity;BME280_pressure;Samples;Min_cycle;Max_cycle;Signal;HPM_P1;HPM_P2
2023/08/22 00:02:21;;;;;;;3.10;1.35;;;;;;;19.85;70.36;101338.97;5032615;28;20132;-84
2023/08/22 00:04:51;;;;;;;1.38;1.27;;;;;;;19.77;71.21;101345.38;5047872;28;20049;-84
2023/08/22 00:07:17;;;;;;;2.60;1.52;;;;;;;19.68;71.62;101340.41;5055496;28;20037;-85
2023/08/22 00:09:44;;;;;;;3.88;1.52;;;;;;;19.57;72.83;101340.81;5044357;28;20044;-86
2023/08/22 00:12:10;;;;;;;3.58;1.20;;;;;;;19.49;73.25;101345.53;5043135;28;20044;-85
2023/08/22 00:14:37;;;;;;;1.15;0.93;;;;;;;19.43;73.79;101341.28;5042175;28;20124;-84
2023/08/22 00:17:04;;;;;;;2.92;1.20;;;;;;;19.37;74.12;101340.63;5048635;28;20473;-87
2023/08/22 00:19:31;;;;;;;1.05;1.05;;;;;;;19.31;74.45;101339.06;5039851;28;20132;-85
2023/08/22 00:21:58;;;;;;;2.28;1.20;;;;;;;19.25;75.02;101334.81;5024611;28;20656;-85
2023/08/22 00:24:25;;;;;;;3.80;1.42;;;;;;;19.21;75.69;101327.03;5045044;28;20114;-85
2023/08/22 00:26:55;;;;;;;3.55;1.00;;;;;;;19.16;76.19;101316.56;5059632;28;20043;-85
2023/08/22 00:29:24;;;;;;;2.55;1.58;;;;;;;19.12;76.41;101313.13;5042291;28;20041;-88
2023/08/22 00:31:52;;;;;;;2.90;1.33;;;;;;;19.09;76.94;101305.28;5039566;28;20045;-85
2023/08/22 00:34:18;;;;;;;1.17;1.17;;;;;;;19.05;76.92;101313.44;5038360;28;20053;-87
2023/08/22 00:36:45;;;;;;;1.77;1.58;;;;;;;19.01;77.24;101313.50;5045438;28;20077;-85
2023/08/22 00:39:12;;;;;;;12.07;2.13;;;;;;;18.98;77.65;101312.75;5035850;28;20059;-87
2023/08/22 00:41:39;;;;;;;2.72;1.40;;;;;;;18.97;77.56;101313.69;5034944;28;20107;-86
2023/08/22 00:44:05;;;;;;;2.35;1.60;;;;;;;18.96;77.42;101320.75;5025699;28;20491;-86
2023/08/22 00:46:32;;;;;;;1.83;1.70;;;;;;;18.94;78.08;101327.91;5036966;28;20476;-88
2023/08/22 00:48:59;;;;;;;1.80;1.63;;;;;;;18.89;78.53;101320.97;5038303;28;20051;-88
2023/08/22 00:51:26;;;;;;;1.63;1.30;;;;;;;18.86;79.19;101327.25;5044436;28;20046;-86
2023/08/22 00:53:53;;;;;;;2.17;1.30;;;;;;;18.81;79.53;101323.88;5036789;28;20060;-88
2023/08/22 00:56:20;;;;;;;2.65;1.50;;;;;;;18.78;79.75;101319.53;5045364;28;20384;-89
2023/08/22 00:58:46;;;;;;;3.88;2.05;;;;;;;18.79;80.12;101312.47;5049740;28;20048;-89
2023/08/22 01:01:14;;;;;;;2.95;1.50;;;;;;;18.76;80.19;101324.06;5037534;28;20061;-86
2023/08/22 01:03:41;;;;;;;3.38;1.45;;;;;;;18.76;80.53;101325.81;5047487;28;20625;-86
2023/08/22 01:06:36;;;;;;;1.33;1.20;;;;;;;18.74;81.31;101333.81;5043266;28;20447;-87
2023/08/22 01:09:13;;;;;;;3.13;1.77;;;;;;;18.71;80.91;101325.09;5041872;28;20041;-84
2023/08/22 01:11:45;;;;;;;3.80;1.50;;;;;;;18.71;81.54;101317.13;5039062;28;20134;-85
2023/08/22 01:14:17;;;;;;;2.60;2.10;;;;;;;18.75;81.08;101318.81;5050953;28;20775;-86
2023/08/22 01:16:45;;;;;;;3.05;1.50;;;;;;;18.76;80.60;101304.59;5047068;28;20062;-86
2023/08/22 01:19:13;;;;;;;2.42;1.38;;;;;;;18.78;80.12;101305.44;5043119;28;20120;-87
2023/08/22 01:21:51;;;;;;;5.35;1.65;;;;;;;18.76;80.09;101313.44;5048584;28;20048;-89
2023/08/22 01:24:17;;;;;;;4.72;2.00;;;;;;;18.75;79.55;101308.19;5038854;28;20048;-85
2023/08/22 01:26:46;;;;;;;4.88;1.75;;;;;;;18.70;79.79;101310.97;5050435;28;20037;-85
2023/08/22 01:29:21;;;;;;;2.50;2.10;;;;;;;18.70;80.35;101310.13;5046592;28;20045;-87
2023/08/22 01:32:12;;;;;;;2.67;1.58;;;;;;;18.65;80.77;101316.41;5044062;28;20742;-85
2023/08/22 01:34:41;;;;;;;2.33;1.65;;;;;;;18.63;80.10;101305.00;5061462;28;20041;-86
2023/08/22 01:37:10;;;;;;;5.05;1.90;;;;;;;18.66;80.23;101285.47;5045649;28;20072;-89
2023/08/22 01:39:38;;;;;;;3.95;2.03;;;;;;;18.70;79.92;101286.25;5041144;28;20100;-86
2023/08/22 01:42:06;;;;;;;5.10;2.25;;;;;;;18.72;79.77;101280.00;5044831;28;20114;-86
2023/08/22 01:44:37;;;;;;;2.50;1.45;;;;;;;18.80;79.75;101287.69;5039536;28;20056;-87
2023/08/22 01:47:04;;;;;;;4.32;1.63;;;;;;;18.86;78.85;101284.81;5045902;28;20053;-86
2023/08/22 01:49:33;;;;;;;4.38;1.48;;;;;;;18.93;78.77;101288.16;5043800;28;20037;-88
2023/08/22 01:52:00;;;;;;;4.93;2.20;;;;;;;18.96;79.14;101278.31;5044620;28;20123;-87
2023/08/22 01:54:26;;;;;;;2.75;1.83;;;;;;;18.99;78.92;101264.97;5046572;28;20052;-87
2023/08/22 01:56:53;;;;;;;2.47;1.40;;;;;;;19.06;78.81;101262.06;5045093;28;20048;-86
2023/08/22 01:59:19;;;;;;;2.55;1.88;;;;;;;19.11;78.94;101268.09;5054361;28;20045;-87
2023/08/22 02:01:46;;;;;;;2.60;1.45;;;;;;;19.14;78.70;101270.66;5039785;28;20481;-85
2023/08/22 02:04:12;;;;;;;3.25;1.40;;;;;;;19.18;78.64;101282.88;5050832;28;20056;-85
2023/08/22 02:06:39;;;;;;;6.00;1.65;;;;;;;19.23;78.36;101278.28;5046297;28;20048;-85
2023/08/22 02:09:06;;;;;;;3.33;1.33;;;;;;;19.26;78.59;101261.38;5043337;28;20124;-87
2023/08/22 02:11:32;;;;;;;5.68;2.38;;;;;;;19.29;77.97;101263.91;5038127;28;20037;-85
2023/08/22 02:13:59;;;;;;;1.55;1.17;;;;;;;19.31;77.65;101262.09;5047330;28;20068;-88
2023/08/22 02:16:26;;;;;;;2.58;1.75;;;;;;;19.30;77.56;101255.03;5046564;28;20045;-86
2023/08/22 02:18:52;;;;;;;2.20;1.35;;;;;;;19.29;77.55;101254.16;5048256;28;20076;-89
2023/08/22 02:21:19;;;;;;;1.77;0.95;;;;;;;19.28;77.66;101247.13;5047576;28;20045;-86
2023/08/22 02:23:45;;;;;;;4.20;2.05;;;;;;;19.27;77.80;101241.91;5046535;28;20069;-86
2023/08/22 02:26:12;;;;;;;3.55;1.98;;;;;;;19.24;78.00;101234.03;5040205;28;20118;-84
2023/08/22 02:28:39;;;;;;;2.92;1.75;;;;;;;19.22;77.98;101222.59;5050026;28;20669;-86
2023/08/22 02:31:05;;;;;;;1.63;1.33;;;;;;;19.22;77.57;101226.13;5050155;28;20075;-88
2023/08/22 02:33:32;;;;;;;2.35;1.50;;;;;;;19.25;77.81;101235.75;5050694;28;20099;-89
2023/08/22 02:35:59;;;;;;;7.03;1.63;;;;;;;19.25;77.81;101241.91;5059525;28;20499;-85
2023/08/22 02:38:25;;;;;;;1.40;1.30;;;;;;;19.23;77.38;101234.94;5054553;28;20037;-87
2023/08/22 02:40:52;;;;;;;2.08;1.27;;;;;;;19.20;77.62;101229.75;5053787;28;20048;-85
2023/08/22 02:43:19;;;;;;;2.80;0.90;;;;;;;19.17;77.96;101220.97;5044213;28;20095;-85
2023/08/22 02:45:47;;;;;;;5.82;1.83;;;;;;;19.15;78.15;101217.50;5048029;28;20052;-87
2023/08/22 02:48:13;;;;;;;1.30;1.20;;;;;;;19.11;78.29;101215.91;5044705;28;20098;-85
2023/08/22 02:50:40;;;;;;;1.85;1.45;;;;;;;19.10;78.45;101213.28;5041657;28;20053;-85
2023/08/22 02:53:09;;;;;;;2.25;1.45;;;;;;;19.07;78.46;101219.56;5046583;28;20045;-85
2023/08/22 02:55:36;;;;;;;2.55;1.48;;;;;;;19.05;78.55;101223.22;5043501;28;20045;-87
2023/08/22 02:58:03;;;;;;;1.88;0.90;;;;;;;19.05;78.91;101225.88;5046934;28;20037;-86
2023/08/22 03:00:29;;;;;;;3.35;1.20;;;;;;;19.02;78.89;101216.22;5044271;28;20037;-87
2023/08/22 03:02:56;;;;;;;1.70;1.30;;;;;;;19.01;79.09;101219.78;5046057;28;20428;-91
2023/08/22 03:05:23;;;;;;;2.25;1.25;;;;;;;19.00;79.48;101207.44;5052006;28;20041;-86
2023/08/22 03:07:49;;;;;;;3.00;1.50;;;;;;;19.04;79.14;101211.72;5050775;28;20102;-87
2023/08/22 03:10:16;;;;;;;2.85;0.88;;;;;;;19.08;79.30;101223.09;5040647;28;20033;-88
2023/08/22 03:12:43;;;;;;;2.25;1.38;;;;;;;19.10;79.04;101211.50;5045869;28;20615;-89
2023/08/22 03:15:09;;;;;;;1.38;1.17;;;;;;;19.15;79.05;101220.16;5055165;28;20079;-88
2023/08/22 03:17:36;;;;;;;3.42;1.20;;;;;;;19.21;78.83;101218.22;5059917;28;20099;-85
2023/08/22 03:20:04;;;;;;;3.33;1.70;;;;;;;19.27;78.41;101223.31;5046154;28;20049;-86
2023/08/22 03:22:31;;;;;;;3.90;1.30;;;;;;;19.33;78.40;101217.75;5029874;28;20045;-90
2023/08/22 03:24:58;;;;;;;1.45;0.93;;;;;;;19.36;78.07;101219.44;5064376;28;20411;-85
2023/08/22 03:27:25;;;;;;;2.47;1.15;;;;;;;19.40;78.08;101223.69;5044172;28;20049;-85
2023/08/22 03:29:51;;;;;;;2.08;1.15;;;;;;;19.39;77.99;101216.69;5041899;28;20040;-85
2023/08/22 03:32:18;;;;;;;5.35;1.17;;;;;;;19.40;77.96;101221.94;5045685;28;20669;-87
2023/08/22 03:34:45;;;;;;;1.38;1.27;;;;;;;19.42;77.74;101222.72;5046288;28;20081;-88
2023/08/22 03:37:12;;;;;;;2.20;1.60;;;;;;;19.46;78.04;101237.66;5046917;28;20049;-87
2023/08/22 03:39:39;;;;;;;2.60;1.02;;;;;;;19.49;78.39;101232.22;5065440;28;20053;-91
2023/08/22 03:42:06;;;;;;;1.80;1.05;;;;;;;19.53;78.32;101227.66;5061208;28;20381;-91
2023/08/22 03:44:33;;;;;;;1.85;1.27;;;;;;;19.51;78.35;101229.50;5045998;28;20037;-90
2023/08/22 03:47:00;;;;;;;4.53;1.50;;;;;;;19.45;78.71;101225.28;5045082;28;20492;-85
2023/08/22 03:49:27;;;;;;;1.63;1.52;;;;;;;19.40;78.68;101231.66;5041696;28;20400;-85
2023/08/22 03:51:53;;;;;;;3.85;1.55;;;;;;;19.32;79.69;101222.22;5042649;28;20099;-93
2023/08/22 03:54:20;;;;;;;4.15;2.08;;;;;;;19.26;80.51;101214.47;5047072;28;20145;-85
2023/08/22 03:56:47;;;;;;;3.20;1.38;;;;;;;19.20;80.77;101219.97;5049597;28;20040;-88
2023/08/22 03:59:13;;;;;;;4.90;1.48;;;;;;;19.18;81.22;101222.69;5047017;28;20113;-86
2023/08/22 04:01:43;;;;;;;4.93;1.75;;;;;;;19.16;81.74;101210.41;5043352;28;20052;-93
2023/08/22 04:04:10;;;;;;;2.90;1.73;;;;;;;19.11;82.41;101201.75;5044385;28;20048;-86
2023/08/22 04:06:37;;;;;;;1.45;1.35;;;;;;;19.09;82.65;101204.47;5028018;28;20048;-86
2023/08/22 04:09:04;;;;;;;2.83;1.98;;;;;;;19.06;83.32;101203.69;5046124;28;20124;-88
2023/08/22 04:11:30;;;;;;;5.30;1.80;;;;;;;19.01;83.45;101210.03;5046154;28;20049;-84
2023/08/22 04:13:57;;;;;;;2.70;1.42;;;;;;;18.97;83.32;101219.03;5049362;28;20029;-85
2023/08/22 04:16:24;;;;;;;1.83;1.63;;;;;;;18.96;84.12;101227.91;5026966;28;20079;-85
2023/08/22 04:18:51;;;;;;;3.63;1.75;;;;;;;18.96;84.48;101227.91;5044397;28;20114;-91
2023/08/22 04:21:20;;;;;;;2.75;1.80;;;;;;;18.99;84.41;101222.50;5028731;28;20067;-90
2023/08/22 04:23:46;;;;;;;2.38;1.63;;;;;;;19.02;84.71;101218.88;5030372;28;20084;-85
2023/08/22 04:26:12;;;;;;;4.63;1.50;;;;;;;19.05;84.73;101217.91;5046517;28;20045;-84
2023/08/22 04:28:39;;;;;;;4.53;1.95;;;;;;;19.05;84.56;101208.16;5050616;28;20055;-86
2023/08/22 04:31:06;;;;;;;5.38;1.63;;;;;;;19.09;84.72;101208.91;5045277;28;20036;-88
2023/08/22 04:33:32;;;;;;;6.80;1.80;;;;;;;19.10;84.43;101205.31;5045257;28;20065;-89
2023/08/22 04:35:59;;;;;;;6.40;1.70;;;;;;;19.14;84.39;101209.63;5040576;28;20535;-86
2023/08/22 04:38:27;;;;;;;3.13;1.77;;;;;;;19.17;84.31;101210.34;5033957;28;20045;-84
2023/08/22 04:40:53;;;;;;;8.75;1.98;;;;;;;19.19;84.15;101212.97;5057518;28;20119;-85
2023/08/22 04:43:22;;;;;;;2.45;1.55;;;;;;;19.21;84.34;101205.81;5049168;28;20048;-85
2023/08/22 04:45:52;;;;;;;4.05;1.27;;;;;;;19.23;83.86;101208.41;5046824;28;20068;-88
2023/08/22 04:48:20;;;;;;;3.58;1.50;;;;;;;19.23;83.89;101214.59;5049223;28;20033;-86
2023/08/22 04:50:46;;;;;;;3.00;1.88;;;;;;;19.24;84.02;101212.78;5048683;28;20049;-86
2023/08/22 04:53:13;;;;;;;3.45;2.03;;;;;;;19.27;83.64;101213.53;5061621;28;20099;-87
2023/08/22 04:55:40;;;;;;;6.38;1.83;;;;;;;19.30;83.44;101207.25;5035292;28;20046;-86
2023/08/22 04:58:07;;;;;;;2.47;1.60;;;;;;;19.32;83.74;101208.06;5050454;28;20065;-84
2023/08/22 05:00:34;;;;;;;3.67;1.20;;;;;;;19.36;83.87;101199.09;5049797;28;20041;-86
2023/08/22 05:02:59;;;;;;;3.22;1.70;;;;;;;19.40;83.75;101202.47;5047503;28;20033;-84
2023/08/22 05:05:26;;;;;;;1.58;1.48;;;;;;;19.43;83.76;101197.91;5055093;28;20128;-86
2023/08/22 05:07:53;;;;;;;3.75;1.40;;;;;;;19.46;83.53;101195.16;5060214;28;20045;-83
2023/08/22 05:10:19;;;;;;;1.15;1.13;;;;;;;19.48;83.08;101195.09;5052189;28;20025;-84
2023/08/22 05:12:46;;;;;;;4.20;1.77;;;;;;;19.48;83.59;101201.25;5051665;28;20050;-87
2023/08/22 05:15:13;;;;;;;1.83;1.50;;;;;;;19.50;83.59;101195.88;5054712;28;20120;-86
2023/08/22 05:17:39;;;;;;;1.67;1.58;;;;;;;19.54;83.65;101194.00;5045890;28;20118;-87
2023/08/22 05:20:13;;;;;;;1.75;1.50;;;;;;;19.56;83.35;101195.66;5051324;28;20508;-88
2023/08/22 05:22:40;;;;;;;;;;;;;;;19.63;84.16;101207.81;5044189;28;20048;-86
2023/08/22 05:25:07;;;;;;;1.40;1.27;;;;;;;19.67;83.32;101206.75;5048175;28;19955;-84
2023/08/22 05:27:34;;;;;;;1.98;1.10;;;;;;;19.73;83.46;101215.41;5048196;28;20107;-84
2023/08/22 05:30:00;;;;;;;3.58;2.00;;;;;;;19.75;83.14;101211.78;5047178;28;20091;-86
2023/08/22 05:32:30;;;;;;;3.20;1.30;;;;;;;19.77;82.75;101220.53;5040732;28;20441;-89
2023/08/22 05:34:58;;;;;;;3.50;1.20;;;;;;;19.79;82.27;101217.81;5055441;28;20098;-85
2023/08/22 05:37:26;;;;;;;3.55;2.08;;;;;;;19.83;82.23;101222.13;5050821;28;20547;-87
2023/08/22 05:39:52;;;;;;;2.05;1.38;;;;;;;19.85;82.48;101227.38;5048217;28;20045;-84
2023/08/22 05:42:19;;;;;;;1.88;1.77;;;;;;;19.86;81.88;101215.84;5047161;28;20041;-85
2023/08/22 05:44:46;;;;;;;5.53;1.45;;;;;;;19.91;81.42;101221.84;5047994;28;20037;-86
2023/08/22 05:47:13;;;;;;;4.88;2.33;;;;;;;19.96;81.82;101220.72;5048050;28;20052;-86
2023/08/22 05:49:43;;;;;;;8.68;2.00;;;;;;;20.03;81.50;101218.69;5034715;28;20140;-85
2023/08/22 05:52:09;;;;;;;4.90;2.40;;;;;;;20.07;80.83;101219.44;5046899;28;20465;-85
2023/08/22 05:54:36;;;;;;;5.53;2.08;;;;;;;20.12;80.79;101225.44;5028160;28;20419;-86
2023/08/22 05:57:03;;;;;;;6.63;1.35;;;;;;;20.13;80.64;101216.53;5051873;28;20045;-86
2023/08/22 05:59:30;;;;;;;5.10;1.63;;;;;;;20.18;80.35;101219.88;5050145;28;20476;-85
2023/08/22 06:01:56;;;;;;;4.57;1.75;;;;;;;20.22;80.07;101213.50;5032036;28;20057;-84
2023/08/22 06:04:23;;;;;;;5.65;1.95;;;;;;;20.30;79.76;101208.75;5049635;28;20045;-86
2023/08/22 06:06:50;;;;;;;4.03;1.80;;;;;;;20.36;79.15;101212.94;5053214;28;20495;-88
2023/08/22 06:09:16;;;;;;;2.40;0.80;;;;;;;20.42;79.01;101223.31;5047800;28;20064;-86
2023/08/22 06:11:43;;;;;;;5.88;1.88;;;;;;;20.49;78.52;101222.16;5051640;28;20125;-86
2023/08/22 06:14:24;;;;;;;3.33;1.23;;;;;;;20.57;77.98;101218.28;5057124;28;20032;-85
2023/08/22 06:16:51;;;;;;;2.15;1.52;;;;;;;20.62;77.03;101226.94;5041545;28;20048;-87
2023/08/22 06:19:17;;;;;;;3.83;1.20;;;;;;;20.67;76.74;101216.97;5055917;28;20072;-86
2023/08/22 06:21:44;;;;;;;4.78;1.30;;;;;;;20.68;75.81;101213.41;5073683;28;20033;-86
2023/08/22 06:24:11;;;;;;;3.53;1.60;;;;;;;20.70;76.54;101219.53;5056165;28;20044;-85
2023/08/22 06:26:38;;;;;;;2.42;1.60;;;;;;;20.81;76.22;101217.28;5033800;28;20088;-85
2023/08/22 06:29:05;;;;;;;2.58;1.23;;;;;;;20.94;75.59;101209.63;5059032;28;20083;-87
2023/08/22 06:31:34;;;;;;;2.17;1.92;;;;;;;21.12;75.16;101213.28;5045912;28;20044;-84
2023/08/22 06:34:00;;;;;;;3.50;1.98;;;;;;;21.22;74.53;101212.88;5035091;28;20112;-84
2023/08/22 06:36:28;;;;;;;2.53;2.28;;;;;;;21.28;74.16;101213.47;5041644;28;20076;-84
2023/08/22 06:38:55;;;;;;;2.55;1.40;;;;;;;21.32;73.99;101215.06;5056429;28;20098;-84
2023/08/22 06:41:21;;;;;;;4.43;1.30;;;;;;;21.33;73.84;101215.94;5062492;28;20041;-84
2023/08/22 06:43:48;;;;;;;2.15;1.23;;;;;;;21.38;73.50;101216.59;5039166;28;20098;-84
2023/08/22 06:46:16;;;;;;;3.80;1.73;;;;;;;21.46;73.78;101213.56;5049118;28;20051;-82
2023/08/22 06:48:43;;;;;;;5.20;1.30;;;;;;;21.61;73.06;101202.22;5061346;28;20389;-83
2023/08/22 06:51:10;;;;;;;1.42;1.33;;;;;;;21.83;71.74;101214.53;5047330;28;20067;-83
2023/08/22 06:53:37;;;;;;;2.38;1.25;;;;;;;22.14;70.80;101210.41;5054807;28;20114;-82
2023/08/22 06:56:04;;;;;;;4.50;1.88;;;;;;;22.65;69.11;101213.25;5058676;28;20047;-83
2023/08/22 06:58:34;;;;;;;14.07;2.63;;;;;;;23.00;67.73;101215.91;5068705;28;20517;-83
2023/08/22 07:01:01;;;;;;;15.10;2.40;;;;;;;23.49;65.28;101220.47;5046468;28;21184;-82
2023/08/22 07:03:27;;;;;;;7.75;2.72;;;;;;;23.55;64.97;101216.63;5049800;28;20048;-82
2023/08/22 07:05:54;;;;;;;6.88;1.75;;;;;;;23.41;66.05;101215.56;5054748;28;20044;-83
2023/08/22 07:08:21;;;;;;;4.05;2.30;;;;;;;23.33;66.47;101220.44;5053506;28;20044;-83
2023/08/22 07:10:48;;;;;;;7.38;2.83;;;;;;;23.32;66.33;101223.19;5036002;28;20041;-83
2023/08/22 07:13:16;;;;;;;5.55;2.30;;;;;;;23.38;66.37;101220.19;5050406;28;20072;-83
2023/08/22 07:15:43;;;;;;;4.97;2.10;;;;;;;23.73;65.28;101228.97;5053763;28;20045;-84
2023/08/22 07:18:11;;;;;;;6.15;2.05;;;;;;;24.07;63.87;101215.56;5029819;28;20045;-85
2023/08/22 07:20:38;;;;;;;4.85;2.78;;;;;;;24.08;63.47;101220.81;5056693;28;20092;-84
2023/08/22 07:23:04;;;;;;;9.32;2.83;;;;;;;24.09;63.22;101217.19;5037866;28;20072;-86
2023/08/22 07:25:31;;;;;;;5.63;1.73;;;;;;;24.30;61.66;101222.25;5049853;28;20048;-83
2023/08/22 07:27:58;;;;;;;6.85;1.92;;;;;;;24.48;61.38;101214.94;5035145;28;20045;-83
2023/08/22 07:30:24;;;;;;;9.35;1.98;;;;;;;24.79;59.46;101217.66;5034901;28;20041;-85
2023/08/22 07:32:51;;;;;;;4.82;2.08;;;;;;;24.87;58.85;101216.22;5056084;28;20479;-84
2023/08/22 07:35:17;;;;;;;4.47;1.83;;;;;;;24.73;58.50;101213.53;5034184;28;20049;-83
2023/08/22 07:37:44;;;;;;;4.93;1.88;;;;;;;24.76;58.79;101213.38;5054159;28;20045;-83
2023/08/22 07:40:11;;;;;;;4.55;2.30;;;;;;;24.96;58.48;101211.28;5046768;28;20440;-86
2023/08/22 07:42:38;;;;;;;3.85;1.90;;;;;;;25.70;55.94;101210.25;5070644;28;20135;-84
2023/08/22 07:45:05;;;;;;;5.65;1.80;;;;;;;26.43;53.91;101216.31;5056505;28;20135;-82
2023/08/22 07:47:32;;;;;;;5.05;1.88;;;;;;;26.97;51.69;101220.69;5050427;28;20061;-83
2023/08/22 07:49:58;;;;;;;4.78;2.08;;;;;;;27.28;49.73;101221.25;5050050;28;20048;-83
2023/08/22 07:52:25;;;;;;;9.00;1.83;;;;;;;27.25;50.35;101210.72;5051789;28;20083;-85
2023/08/22 07:54:52;;;;;;;4.88;1.55;;;;;;;27.21;50.49;101217.28;5035386;28;20483;-84
2023/08/22 07:57:18;;;;;;;4.68;1.58;;;;;;;27.47;49.32;101219.97;5051293;28;20438;-83
2023/08/22 07:59:45;;;;;;;4.07;1.60;;;;;;;27.33;49.78;101219.09;5051489;28;20056;-84
2023/08/22 08:02:12;;;;;;;6.20;2.13;;;;;;;26.87;50.71;101225.88;5050001;28;20032;-85
2023/08/22 08:04:38;;;;;;;3.13;1.52;;;;;;;26.68;50.23;101225.38;5033024;28;20519;-84
2023/08/22 08:07:05;;;;;;;4.55;1.83;;;;;;;26.40;52.11;101233.47;5046237;28;20037;-83
2023/08/22 08:09:32;;;;;;;4.22;1.25;;;;;;;26.50;51.55;101230.16;5045535;28;20037;-85
2023/08/22 08:11:59;;;;;;;2.97;1.88;;;;;;;26.68;51.43;101215.50;5062336;28;20037;-85
2023/08/22 08:14:26;;;;;;;3.85;1.40;;;;;;;26.64;51.41;101221.19;5056520;28;20117;-87
2023/08/22 08:16:53;;;;;;;1.58;1.42;;;;;;;26.83;50.74;101220.81;5060794;28;20491;-83
2023/08/22 08:19:19;;;;;;;3.25;1.40;;;;;;;26.98;49.93;101213.53;5053608;28;20094;-83
2023/08/22 08:21:46;;;;;;;2.47;1.30;;;;;;;27.37;48.78;101214.38;5053162;28;20057;-88
2023/08/22 08:24:13;;;;;;;1.85;1.30;;;;;;;28.04;47.71;101211.34;5052576;28;20101;-84
2023/08/22 08:26:39;;;;;;;3.58;1.15;;;;;;;28.73;45.13;101207.13;5052273;28;20061;-85
2023/08/22 08:29:06;;;;;;;4.43;1.83;;;;;;;29.25;44.08;101212.09;5050092;28;20147;-85
2023/08/22 08:31:33;;;;;;;4.70;1.23;;;;;;;29.75;43.07;101219.81;5050885;28;20037;-86
2023/08/22 08:33:59;;;;;;;3.03;1.70;;;;;;;29.71;42.54;101224.59;5054242;28;20069;-87
2023/08/22 08:36:26;;;;;;;3.95;1.73;;;;;;;29.31;42.55;101236.78;5044630;28;20128;-84
2023/08/22 08:38:52;;;;;;;4.85;1.60;;;;;;;28.73;43.48;101234.06;5034164;28;20116;-86
2023/08/22 08:41:21;;;;;;;2.78;1.40;;;;;;;28.27;45.52;101240.22;5017216;28;20045;-83
2023/08/22 08:43:50;;;;;;;4.78;1.67;;;;;;;28.02;45.79;101236.66;5013686;28;20041;-83
2023/08/22 08:46:17;;;;;;;8.38;2.78;;;;;;;28.26;44.45;101233.97;5034818;28;20052;-83
2023/08/22 08:48:45;;;;;;;1.80;1.33;;;;;;;28.33;44.09;101231.66;5024837;28;20044;-85
2023/08/22 08:51:12;;;;;;;3.78;2.80;;;;;;;28.65;42.81;101234.66;5048957;28;20041;-84
2023/08/22 08:53:39;;;;;;;3.33;2.78;;;;;;;28.74;42.21;101233.09;5042738;28;20470;-83
2023/08/22 08:56:09;;;;;;;1.73;1.50;;;;;;;28.49;42.51;101237.63;5031532;28;20037;-83
2023/08/22 08:58:38;;;;;;;2.38;1.40;;;;;;;28.36;43.42;101236.84;5034514;28;20065;-85
2023/08/22 09:01:06;;;;;;;2.40;1.50;;;;;;;28.42;43.44;101238.19;5017748;28;20076;-84
2023/08/22 09:03:33;;;;;;;2.78;1.35;;;;;;;28.11;44.14;101235.97;5031912;28;20037;-83
2023/08/22 09:06:00;;;;;;;5.60;1.88;;;;;;;27.91;44.72;101240.09;5032242;28;20576;-86
2023/08/22 09:08:26;;;;;;;2.60;1.17;;;;;;;27.72;44.84;101238.75;5027349;28;20041;-85
2023/08/22 09:10:56;;;;;;;1.52;0.90;;;;;;;27.70;45.21;101242.53;5034780;28;20411;-88
2023/08/22 09:13:28;;;;;;;5.55;1.77;;;;;;;27.60;45.49;101241.47;5035173;28;20043;-84
2023/08/22 09:16:02;;;;;;;3.67;1.60;;;;;;;27.51;46.04;101241.16;5034929;28;20523;-84
2023/08/22 09:18:29;;;;;;;5.28;1.77;;;;;;;27.61;45.29;101240.50;5034196;28;20064;-84
2023/08/22 09:21:04;;;;;;;5.10;1.33;;;;;;;27.69;45.20;101247.06;5055372;28;20120;-84
2023/08/22 09:23:32;;;;;;;7.20;1.40;;;;;;;27.87;44.89;101244.84;5033044;28;20108;-84
2023/08/22 09:26:01;;;;;;;3.35;1.40;;;;;;;27.93;44.12;101235.47;5035267;28;20511;-83
2023/08/22 09:28:28;;;;;;;6.03;1.50;;;;;;;28.08;43.79;101243.41;5045959;28;20087;-83
2023/08/22 09:30:54;;;;;;;5.13;1.80;;;;;;;28.11;43.82;101244.06;5041724;28;20057;-81
2023/08/22 09:33:21;;;;;;;5.68;2.10;;;;;;;28.32;43.10;101241.59;5037884;28;20147;-84
2023/08/22 09:35:48;;;;;;;2.60;1.20;;;;;;;28.60;42.52;101241.34;5030843;28;20139;-84
2023/08/22 09:38:14;;;;;;;1.95;1.20;;;;;;;28.73;42.12;101242.13;5038526;28;20109;-84
2023/08/22 09:40:55;;;;;;;5.47;1.45;;;;;;;28.98;41.20;101249.22;5053787;28;20049;-83
2023/08/22 09:43:23;;;;;;;2.13;1.00;;;;;;;29.02;41.03;101245.28;5053624;28;20037;-85
2023/08/22 09:45:51;;;;;;;2.30;0.80;;;;;;;29.09;41.36;101242.97;5036352;28;20065;-83
2023/08/22 09:48:25;;;;;;;2.45;1.00;;;;;;;29.17;40.56;101245.06;5054463;28;20075;-84
2023/08/22 09:50:58;;;;;;;4.05;1.20;;;;;;;28.94;40.83;101254.94;5038470;28;20499;-83
2023/08/22 09:53:25;;;;;;;;;;;;;;;28.70;40.92;101250.47;5049748;28;20044;-83
2023/08/22 09:55:53;;;;;;;5.20;2.10;;;;;;;28.43;41.95;101254.22;5055370;28;19931;-83
2023/08/22 09:58:22;;;;;;;2.15;1.10;;;;;;;28.42;42.17;101255.22;5055136;28;20123;-83
2023/08/22 10:00:50;;;;;;;2.80;1.10;;;;;;;28.58;42.00;101252.22;5054568;28;20052;-85
2023/08/22 10:03:17;;;;;;;3.63;1.20;;;;;;;28.63;41.60;101247.34;5035308;28;20038;-83
2023/08/22 10:05:47;;;;;;;3.30;0.90;;;;;;;28.92;41.42;101257.75;5051049;28;20063;-84
2023/08/22 10:08:14;;;;;;;2.90;1.10;;;;;;;29.22;40.87;101248.25;5040684;28;20131;-83
2023/08/22 10:10:47;;;;;;;2.10;1.23;;;;;;;29.75;39.99;101247.69;5056773;28;20440;-84
2023/08/22 10:13:15;;;;;;;3.80;1.20;;;;;;;30.79;38.82;101248.09;5055740;28;20396;-86
2023/08/22 10:15:42;;;;;;;6.65;1.35;;;;;;;31.51;37.27;101251.81;5055588;28;20083;-82
2023/08/22 10:18:14;;;;;;;3.67;1.50;;;;;;;31.96;35.87;101249.69;5063492;28;20056;-91
2023/08/22 10:20:41;;;;;;;1.67;0.90;;;;;;;32.03;36.28;101248.13;5056497;28;20064;-82
2023/08/22 10:23:11;;;;;;;1.33;1.23;;;;;;;32.46;34.51;101248.78;5078954;28;20091;-82
2023/08/22 10:25:48;;;;;;;2.47;1.17;;;;;;;32.32;33.31;101253.63;5061072;28;20132;-81
2023/08/22 10:28:15;;;;;;;2.25;0.90;;;;;;;32.12;34.12;101251.84;5050117;28;20041;-82
2023/08/22 10:31:12;;;;;;;3.60;0.98;;;;;;;31.99;33.87;101244.88;5054824;28;20049;-87
2023/08/22 10:33:39;;;;;;;1.83;1.30;;;;;;;32.51;34.20;101237.53;5053568;28;20044;-81
2023/08/22 10:36:17;;;;;;;2.00;0.82;;;;;;;33.61;32.14;101247.84;5025794;28;20084;-81
2023/08/22 10:38:57;;;;;;;4.65;1.10;;;;;;;34.66;29.76;101246.56;5044790;28;20046;-82
2023/08/22 10:41:47;;;;;;;1.67;0.85;;;;;;;35.46;28.63;101248.31;5017071;28;20048;-83
2023/08/22 10:44:19;;;;;;;2.28;1.05;;;;;;;35.29;28.94;101242.75;5030232;28;20055;-84
2023/08/22 10:47:07;;;;;;;2.35;1.00;;;;;;;34.04;30.52;101247.31;5036330;28;20053;-83
2023/08/22 10:49:35;;;;;;;3.40;1.02;;;;;;;32.62;32.68;101256.31;5029111;28;20499;-83
2023/08/22 10:52:11;;;;;;;3.83;1.60;;;;;;;31.52;34.36;101252.66;5034340;28;20045;-83
2023/08/22 10:55:16;;;;;;;1.50;0.82;;;;;;;30.77;35.34;101251.91;5022803;28;20076;-83
2023/08/22 10:57:46;;;;;;;2.38;0.85;;;;;;;31.72;34.41;101242.81;5019058;28;20507;-83
2023/08/22 11:00:19;;;;;;;1.40;0.85;;;;;;;32.25;32.89;101244.34;5000870;28;20034;-87
2023/08/22 11:02:51;;;;;;;5.68;1.20;;;;;;;32.71;32.64;101241.94;5032530;28;20049;-83
2023/08/22 11:05:18;;;;;;;5.40;0.93;;;;;;;32.68;32.49;101242.19;5028432;28;20038;-82
2023/08/22 11:07:48;;;;;;;5.95;0.88;;;;;;;32.60;33.35;101236.66;5027593;28;20081;-83
2023/08/22 11:10:18;;;;;;;3.47;1.02;;;;;;;32.06;34.13;101233.47;5022267;28;20103;-82
2023/08/22 11:12:45;;;;;;;1.85;0.90;;;;;;;32.54;33.31;101229.09;5004382;28;20048;-86
2023/08/22 11:15:15;;;;;;;1.70;0.85;;;;;;;33.27;32.91;101234.84;5027764;28;20057;-83
2023/08/22 11:17:43;;;;;;;1.15;0.50;;;;;;;34.44;31.40;101227.84;5019924;28;20128;-83
2023/08/22 11:20:15;;;;;;;2.80;0.98;;;;;;;34.30;31.22;101225.66;5014472;28;20057;-84
2023/08/22 11:22:43;;;;;;;5.53;1.58;;;;;;;33.92;30.82;101236.69;5011649;28;20801;-83
2023/08/22 11:25:11;;;;;;;3.25;0.95;;;;;;;33.14;32.26;101242.41;5024533;28;20490;-90
2023/08/22 11:27:40;;;;;;;3.25;1.10;;;;;;;32.64;32.97;101235.34;5016526;28;20466;-84
2023/08/22 11:30:09;;;;;;;4.53;0.80;;;;;;;32.56;33.84;101229.81;4994475;28;20041;-87
2023/08/22 11:32:38;;;;;;;13.10;1.50;;;;;;;32.77;33.47;101230.50;5014433;28;20037;-83